createdAt,value
2022-09-07T00:00:54.316Z,68.49
2022-09-07T00:01:54.413Z,68.92
2022-09-07T00:02:54.385Z,68.52
2022-09-07T00:03:54.378Z,68.62
2022-09-07T00:04:54.296Z,68.82
2022-09-07T00:05:54.333Z,69.12
2022-09-07T00:06:54.205Z,69.12
2022-09-07T00:07:54.335Z,69.15
2022-09-07T00:08:54.192Z,68.92
2022-09-07T00:09:54.236Z,68.52
2022-09-07T00:10:54.139Z,68.41
2022-09-07T00:11:54.204Z,69.12
2022-09-07T00:12:54.098Z,68.92
2022-09-07T00:13:54.182Z,69.02
2022-09-07T00:14:54.066Z,69.12
2022-09-07T00:15:54.223Z,69.12
2022-09-07T00:16:54.050Z,69.06
2022-09-07T00:17:54.097Z,68.92
2022-09-07T00:18:53.975Z,68.65
2022-09-07T00:19:54.060Z,69.15
2022-09-07T00:20:54.007Z,69.45
2022-09-07T00:21:54.009Z,69.09
2022-09-07T00:22:53.908Z,69.69
2022-09-07T00:23:53.998Z,70.32
2022-09-07T00:24:53.870Z,69.69
2022-09-07T00:25:54.287Z,69.59
2022-09-07T00:26:53.857Z,69.49
2022-09-07T00:27:53.883Z,69.85
2022-09-07T00:28:53.824Z,70.06
2022-09-07T00:29:53.881Z,69.96
2022-09-07T00:30:53.825Z,69.99
2022-09-07T00:31:53.919Z,70.29
2022-09-07T00:32:53.814Z,70.16
2022-09-07T00:33:53.827Z,70.66
2022-09-07T00:34:53.846Z,70.89
2022-09-07T00:35:53.751Z,70.79
2022-09-07T00:36:53.719Z,70.26
2022-09-07T00:37:53.754Z,69.99
2022-09-07T00:38:53.721Z,70.79
2022-09-07T00:39:53.780Z,70.29
2022-09-07T00:40:53.649Z,70.39
2022-09-07T00:41:53.677Z,70.79
2022-09-07T00:42:53.673Z,69.56
2022-09-07T00:43:53.678Z,69.59
2022-09-07T00:44:53.610Z,69.29
2022-09-07T00:45:53.597Z,69.09
2022-09-07T00:46:53.656Z,68.95
2022-09-07T00:47:53.581Z,68.98
2022-09-07T00:48:53.577Z,68.98
2022-09-07T00:49:53.516Z,69.09
2022-09-07T00:50:53.532Z,69.09
2022-09-07T00:51:53.490Z,68.98
2022-09-07T00:52:53.522Z,69.06
2022-09-07T00:53:53.479Z,68.85
2022-09-07T00:54:53.419Z,68.85
2022-09-07T00:55:53.394Z,69.15
2022-09-07T00:56:53.401Z,68.98
2022-09-07T00:57:53.367Z,68.98
2022-09-07T00:58:53.384Z,69.38
2022-09-07T00:59:53.325Z,69.09
2022-09-07T01:00:53.296Z,69.45
2022-09-07T01:01:53.412Z,69.38
2022-09-07T01:02:53.427Z,69.06
2022-09-07T01:03:53.264Z,69.25
2022-09-07T01:04:53.281Z,69.06
2022-09-07T01:05:53.201Z,69.06
2022-09-07T01:06:53.187Z,68.98
2022-09-07T01:07:53.164Z,69.18
2022-09-07T01:08:53.186Z,69.45
2022-09-07T01:09:53.147Z,69.06
2022-09-07T01:10:53.149Z,68.65
2022-09-07T01:11:53.122Z,68.85
2022-09-07T01:12:53.078Z,68.25
2022-09-07T01:13:53.087Z,68.72
2022-09-07T01:14:53.049Z,68.41
2022-09-07T01:15:53.100Z,68.35
2022-09-07T01:16:52.999Z,68.75
2022-09-07T01:17:53.058Z,68.41
2022-09-07T01:18:52.984Z,68.65
2022-09-07T01:19:52.943Z,68.32
2022-09-07T01:20:52.993Z,68.45
2022-09-07T01:21:52.925Z,68.72
2022-09-07T01:22:52.898Z,68.85
2022-09-07T01:23:52.903Z,69.15
2022-09-07T01:24:52.879Z,69.35
2022-09-07T01:25:52.854Z,70.09
2022-09-07T01:26:52.888Z,70.43
2022-09-07T01:27:52.816Z,70.93
2022-09-07T01:28:52.795Z,71.03
2022-09-07T01:29:52.758Z,71.13
2022-09-07T01:30:52.799Z,71.13
2022-09-07T01:31:52.773Z,70.73
2022-09-07T01:32:52.711Z,71.13
2022-09-07T01:33:52.702Z,71.63
2022-09-07T01:34:52.684Z,72.14
2022-09-07T01:35:52.707Z,72.34
2022-09-07T01:36:52.629Z,72.84
2022-09-07T01:37:56.794Z,72.34
2022-09-07T01:38:52.612Z,72.34
2022-09-07T01:39:52.669Z,72.24
2022-09-07T01:40:52.561Z,72.44
2022-09-07T01:41:52.559Z,72.44
2022-09-07T01:42:52.602Z,72.64
2022-09-07T01:43:52.532Z,72.24
2022-09-07T01:44:52.536Z,72.64
2022-09-07T01:45:52.482Z,72.74
2022-09-07T01:46:52.446Z,72.24
2022-09-07T01:47:52.420Z,73.04
2022-09-07T01:48:52.453Z,72.54
2022-09-07T01:49:52.395Z,73.04
2022-09-07T01:50:52.383Z,73.35
2022-09-07T01:51:52.363Z,73.44
2022-09-07T01:52:52.357Z,73.75
2022-09-07T01:53:52.422Z,73.58
2022-09-07T01:54:52.319Z,73.75
2022-09-07T01:55:52.273Z,73.44
2022-09-07T01:56:52.274Z,73.58
2022-09-07T01:57:52.259Z,73.85
2022-09-07T01:58:52.304Z,73.55
2022-09-07T01:59:52.221Z,73.75
2022-09-07T02:00:52.267Z,73.95
2022-09-07T02:01:52.221Z,75.19
2022-09-07T02:02:52.340Z,76.50
2022-09-07T02:03:53.267Z,78.27
2022-09-07T02:04:52.131Z,77.67
2022-09-07T02:05:52.112Z,78.58
2022-09-07T02:06:52.080Z,78.21
2022-09-07T02:07:52.065Z,79.02
2022-09-07T02:08:52.085Z,79.92
2022-09-07T02:09:52.067Z,78.25
2022-09-07T02:10:52.013Z,80.12
2022-09-07T02:11:51.992Z,79.86
2022-09-07T02:12:51.976Z,80.26
2022-09-07T02:13:51.937Z,80.32
2022-09-07T02:14:52.815Z,80.83
2022-09-07T02:15:51.951Z,80.58
2022-09-07T02:16:51.886Z,79.22
2022-09-07T02:17:51.879Z,79.38
2022-09-07T02:18:51.924Z,79.99
2022-09-07T02:19:51.893Z,79.68
2022-09-07T02:20:51.833Z,80.39
2022-09-07T02:21:51.809Z,79.48
2022-09-07T02:22:51.788Z,79.62
2022-09-07T02:23:51.802Z,80.43
2022-09-07T02:24:51.785Z,80.12
2022-09-07T02:25:51.727Z,79.72
2022-09-07T02:26:51.704Z,79.22
2022-09-07T02:27:51.754Z,79.42
2022-09-07T02:28:51.664Z,80.83
2022-09-07T02:29:51.690Z,80.63
2022-09-07T02:30:51.691Z,81.39
2022-09-07T02:31:51.650Z,81.73
2022-09-07T02:32:51.593Z,80.29
2022-09-07T02:33:51.604Z,79.79
2022-09-07T02:34:51.610Z,79.48
2022-09-07T02:35:51.572Z,79.99
2022-09-07T02:36:51.585Z,80.58
2022-09-07T02:37:51.501Z,79.79
2022-09-07T02:38:51.483Z,80.69
2022-09-07T02:39:51.566Z,80.58
2022-09-07T02:40:51.520Z,80.69
2022-09-07T02:41:51.449Z,79.68
2022-09-07T02:42:51.427Z,80.83
2022-09-07T02:43:51.412Z,81.90
2022-09-07T02:44:51.401Z,80.79
2022-09-07T02:45:51.529Z,82.44
2022-09-07T02:46:51.387Z,82.10
2022-09-07T02:47:51.339Z,81.79
2022-09-07T02:48:51.313Z,81.70
2022-09-07T02:49:51.297Z,80.79
2022-09-07T02:50:51.309Z,81.79
2022-09-07T02:51:51.263Z,80.99
2022-09-07T02:52:51.335Z,80.99
2022-09-07T02:53:51.209Z,81.99
2022-09-07T02:54:51.257Z,81.59
2022-09-07T02:55:51.179Z,80.08
2022-09-07T02:56:51.168Z,80.69
2022-09-07T02:57:51.147Z,80.49
2022-09-07T02:58:51.156Z,81.99
2022-09-07T02:59:51.098Z,82.04
2022-09-07T03:00:51.097Z,82.10
2022-09-07T03:01:51.221Z,82.40
2022-09-07T03:02:51.128Z,81.99
2022-09-07T03:03:51.067Z,81.79
2022-09-07T03:04:51.031Z,81.90
2022-09-07T03:05:50.990Z,81.63
2022-09-07T03:06:50.983Z,82.34
2022-09-07T03:07:50.972Z,82.24
2022-09-07T03:08:50.930Z,82.84
2022-09-07T03:09:50.951Z,83.11
2022-09-07T03:10:50.969Z,82.30
2022-09-07T03:11:50.895Z,82.24
2022-09-07T03:12:50.882Z,81.99
2022-09-07T03:13:50.827Z,82.94
2022-09-07T03:14:50.845Z,82.94
2022-09-07T03:15:55.535Z,82.64
2022-09-07T03:16:51.817Z,82.94
2022-09-07T03:17:50.792Z,82.94
2022-09-07T03:18:50.754Z,83.65
2022-09-07T03:19:50.795Z,83.45
2022-09-07T03:20:50.767Z,83.45
2022-09-07T03:21:50.705Z,83.95
2022-09-07T03:22:50.695Z,83.04
2022-09-07T03:23:51.968Z,82.84
2022-09-07T03:24:50.678Z,82.54
2022-09-07T03:25:50.669Z,82.34
2022-09-07T03:26:50.677Z,82.84
2022-09-07T03:27:50.615Z,84.35
2022-09-07T03:28:50.655Z,83.34
2022-09-07T03:29:50.579Z,83.34
2022-09-07T03:30:50.624Z,82.90
2022-09-07T03:31:50.578Z,83.54
2022-09-07T03:32:50.515Z,83.65
2022-09-07T03:33:50.492Z,84.45
2022-09-07T03:34:50.491Z,84.29
2022-09-07T03:35:50.477Z,84.89
2022-09-07T03:36:50.473Z,85.30
2022-09-07T03:37:50.461Z,85.03
2022-09-07T03:38:50.379Z,86.04
2022-09-07T03:39:50.431Z,86.85
2022-09-07T03:40:50.352Z,86.89
2022-09-07T03:41:50.409Z,86.58
2022-09-07T03:42:50.332Z,86.89
2022-09-07T03:43:50.325Z,87.23
2022-09-07T03:44:50.324Z,87.03
2022-09-07T03:45:50.296Z,86.13
2022-09-07T03:46:50.314Z,86.63
2022-09-07T03:47:50.275Z,86.33
2022-09-07T03:48:50.233Z,86.93
2022-09-07T03:49:50.209Z,85.82
2022-09-07T03:50:50.193Z,85.92
2022-09-07T03:51:50.179Z,86.63
2022-09-07T03:52:50.188Z,86.58
2022-09-07T03:53:50.157Z,86.18
2022-09-07T03:54:50.086Z,85.58
2022-09-07T03:55:50.067Z,86.08
2022-09-07T03:56:50.098Z,85.98
2022-09-07T03:57:50.106Z,86.38
2022-09-07T03:58:50.037Z,85.38
2022-09-07T03:59:50.025Z,86.18
2022-09-07T04:00:50.010Z,85.68
2022-09-07T04:01:50.016Z,85.92
2022-09-07T04:02:50.095Z,86.63
2022-09-07T04:03:49.954Z,86.29
2022-09-07T04:04:49.912Z,86.99
2022-09-07T04:05:49.893Z,86.83
2022-09-07T04:06:49.880Z,86.89
2022-09-07T04:07:49.890Z,86.89
2022-09-07T04:08:49.851Z,86.83
2022-09-07T04:09:49.849Z,86.93
2022-09-07T04:10:49.808Z,86.73
2022-09-07T04:11:49.843Z,87.54
2022-09-07T04:12:49.782Z,87.23
2022-09-07T04:13:49.767Z,87.43
2022-09-07T04:14:49.730Z,86.63
2022-09-07T04:15:53.381Z,87.23
2022-09-07T04:16:49.726Z,86.93
2022-09-07T04:17:49.672Z,86.33
2022-09-07T04:18:49.738Z,86.63
2022-09-07T04:19:49.646Z,86.33
2022-09-07T04:20:49.699Z,87.03
2022-09-07T04:21:49.602Z,86.83
2022-09-07T04:22:53.691Z,87.23
2022-09-07T04:23:49.599Z,86.83
2022-09-07T04:24:49.587Z,87.43
2022-09-07T04:25:49.563Z,86.73
2022-09-07T04:26:49.525Z,86.93
2022-09-07T04:27:49.506Z,87.09
2022-09-07T04:28:49.476Z,87.34
2022-09-07T04:29:49.557Z,87.70
2022-09-07T04:30:49.490Z,87.19
2022-09-07T04:31:49.409Z,87.29
2022-09-07T04:32:49.410Z,87.23
2022-09-07T04:33:49.392Z,86.93
2022-09-07T04:34:49.451Z,87.40
2022-09-07T04:35:49.340Z,87.03
2022-09-07T04:36:49.349Z,87.48
2022-09-07T04:37:49.314Z,87.18
2022-09-07T04:38:49.281Z,88.59
2022-09-07T04:39:49.298Z,88.28
2022-09-07T04:40:49.279Z,88.18
2022-09-07T04:41:49.257Z,88.39
2022-09-07T04:42:49.234Z,88.39
2022-09-07T04:43:49.227Z,87.78
2022-09-07T04:44:49.196Z,88.04
2022-09-07T04:45:49.271Z,87.68
2022-09-07T04:46:49.204Z,88.45
2022-09-07T04:47:49.135Z,88.45
2022-09-07T04:48:49.126Z,87.23
2022-09-07T04:49:49.081Z,87.74
2022-09-07T04:50:49.081Z,87.94
2022-09-07T04:51:49.118Z,87.54
2022-09-07T04:52:49.040Z,87.18
2022-09-07T04:53:49.048Z,87.68
2022-09-07T04:54:49.068Z,88.28
2022-09-07T04:55:49.010Z,87.98
2022-09-07T04:56:49.011Z,87.82
2022-09-07T04:57:48.960Z,88.83
2022-09-07T04:58:48.939Z,88.79
2022-09-07T04:59:48.916Z,89.29
2022-09-07T05:00:48.926Z,88.79
2022-09-07T05:01:48.880Z,88.79
2022-09-07T05:02:49.217Z,88.59
2022-09-07T05:03:48.903Z,86.77
2022-09-07T05:04:48.824Z,86.97
2022-09-07T05:05:48.816Z,87.34
2022-09-07T05:06:48.788Z,86.67
2022-09-07T05:07:48.776Z,88.08
2022-09-07T05:08:48.814Z,87.27
2022-09-07T05:09:48.746Z,87.48
2022-09-07T05:10:48.737Z,88.28
2022-09-07T05:11:48.705Z,87.58
2022-09-07T05:12:48.732Z,88.65
2022-09-07T05:13:48.663Z,87.63
2022-09-07T05:14:48.716Z,87.63
2022-09-07T05:15:48.606Z,87.43
2022-09-07T05:16:48.722Z,87.54
2022-09-07T05:17:48.615Z,88.48
2022-09-07T05:18:48.565Z,87.27
2022-09-07T05:19:48.645Z,87.48
2022-09-07T05:20:48.538Z,87.78
2022-09-07T05:21:48.598Z,87.98
2022-09-07T05:22:48.495Z,88.59
2022-09-07T05:23:48.477Z,88.28
2022-09-07T05:24:48.522Z,88.48
2022-09-07T05:25:48.429Z,88.24
2022-09-07T05:26:48.423Z,88.65
2022-09-07T05:27:48.405Z,87.94
2022-09-07T05:28:48.533Z,87.94
2022-09-07T05:30:04.565Z,86.69
2022-09-07T05:31:49.340Z,86.99
2022-09-07T05:32:48.318Z,86.69
2022-09-07T05:34:52.276Z,86.49
2022-09-07T05:35:48.282Z,87.19
2022-09-07T05:36:48.236Z,87.19
2022-09-07T05:37:48.256Z,87.60
2022-09-07T05:38:48.208Z,87.19
2022-09-07T05:39:48.262Z,86.99
2022-09-07T05:40:48.160Z,87.29
2022-09-07T05:41:48.181Z,87.29
2022-09-07T05:42:48.122Z,87.09
2022-09-07T05:44:49.086Z,87.09
2022-09-07T05:45:48.116Z,87.19
2022-09-07T05:46:48.166Z,87.29
2022-09-07T05:47:48.049Z,86.99
2022-09-07T05:48:48.027Z,86.89
2022-09-07T05:49:51.942Z,86.65
2022-09-07T05:50:47.979Z,86.38
2022-09-07T05:51:47.978Z,85.94
2022-09-07T05:52:47.993Z,85.94
2022-09-07T05:53:47.946Z,85.74
2022-09-07T05:54:47.904Z,85.14
2022-09-07T05:55:47.931Z,84.94
2022-09-07T05:56:47.871Z,85.14
2022-09-07T05:57:47.907Z,85.50
2022-09-07T05:58:47.836Z,84.89
2022-09-07T05:59:47.818Z,84.19
2022-09-07T06:00:47.777Z,84.29
2022-09-07T06:01:47.846Z,84.09
2022-09-07T06:02:47.820Z,84.09
2022-09-07T06:03:48.036Z,83.99
2022-09-07T06:04:47.787Z,84.23
2022-09-07T06:05:47.709Z,84.33
2022-09-07T06:07:17.657Z,84.53
2022-09-07T06:07:48.587Z,84.74
2022-09-07T06:08:47.637Z,84.94
2022-09-07T06:10:48.628Z,85.48
2022-09-07T06:11:47.617Z,85.88
2022-09-07T06:12:49.203Z,85.74
2022-09-07T06:13:47.632Z,86.04
2022-09-07T06:14:47.614Z,85.08
2022-09-07T06:15:47.529Z,84.83
2022-09-07T06:16:47.560Z,84.83
2022-09-07T06:17:47.498Z,85.03
2022-09-07T06:18:47.480Z,85.28
2022-09-07T06:19:47.465Z,85.17
2022-09-07T06:20:47.502Z,84.83
2022-09-07T06:21:47.412Z,84.29
2022-09-07T06:22:47.457Z,84.49
2022-09-07T06:23:47.379Z,84.39
2022-09-07T06:24:47.368Z,84.09
2022-09-07T06:25:47.347Z,84.19
2022-09-07T06:26:47.363Z,83.79
2022-09-07T06:27:47.320Z,83.89
2022-09-07T06:28:49.633Z,84.63
2022-09-07T06:29:47.302Z,84.63
2022-09-07T06:30:47.248Z,84.88
2022-09-07T06:32:48.222Z,85.14
2022-09-07T06:33:47.210Z,85.14
2022-09-07T06:34:47.186Z,85.14
2022-09-07T06:35:47.172Z,84.94
2022-09-07T06:36:47.135Z,84.94
2022-09-07T06:37:47.169Z,84.59
2022-09-07T06:38:47.128Z,84.94
2022-09-07T06:39:47.167Z,84.74
2022-09-07T06:40:47.251Z,85.03
2022-09-07T06:42:02.340Z,84.89
2022-09-07T06:42:48.141Z,84.89
2022-09-07T06:43:47.024Z,84.89
2022-09-07T06:44:47.013Z,84.35
2022-09-07T06:45:47.196Z,84.15
2022-09-07T06:47:47.949Z,83.14
2022-09-07T06:48:47.122Z,83.75
2022-09-07T06:49:47.057Z,83.14
2022-09-07T06:50:47.190Z,84.15
2022-09-07T06:51:46.874Z,84.19
2022-09-07T06:53:48.164Z,83.14
2022-09-07T06:55:02.140Z,82.74
2022-09-07T06:55:47.805Z,82.74
2022-09-07T06:56:46.833Z,83.34
2022-09-07T06:57:46.779Z,83.04
2022-09-07T06:58:46.747Z,81.70
2022-09-07T06:59:46.767Z,81.73
2022-09-07T07:00:46.764Z,81.43
2022-09-07T07:01:46.740Z,81.59
2022-09-07T07:02:46.693Z,81.49
2022-09-07T07:03:46.726Z,81.70
2022-09-07T07:04:46.670Z,82.24
2022-09-07T07:05:46.635Z,81.99
2022-09-07T07:06:46.601Z,81.79
2022-09-07T07:07:46.591Z,80.05
2022-09-07T07:08:46.549Z,80.21
2022-09-07T07:09:46.557Z,79.81
2022-09-07T07:10:46.519Z,78.46
2022-09-07T07:11:46.503Z,79.47
2022-09-07T07:12:46.501Z,79.47
2022-09-07T07:13:46.438Z,78.97
2022-09-07T07:14:46.492Z,78.53
2022-09-07T07:15:46.479Z,78.33
2022-09-07T07:16:46.463Z,78.03
2022-09-07T07:17:51.935Z,78.12
2022-09-07T07:18:47.375Z,78.22
2022-09-07T07:19:46.350Z,79.57
2022-09-07T07:20:46.333Z,79.43
2022-09-07T07:22:10.676Z,78.39
2022-09-07T07:22:47.328Z,77.19
2022-09-07T07:23:46.294Z,77.09
2022-09-07T07:24:46.253Z,77.69
2022-09-07T07:25:46.240Z,77.89
2022-09-07T07:26:46.198Z,76.78
2022-09-07T07:27:46.264Z,77.09
2022-09-07T07:29:02.949Z,76.45
2022-09-07T07:29:47.180Z,75.41
2022-09-07T07:30:46.200Z,75.91
2022-09-07T07:31:46.141Z,75.10
2022-09-07T07:32:46.170Z,74.77
2022-09-07T07:33:46.198Z,74.47
2022-09-07T07:34:46.413Z,74.51
2022-09-07T07:35:46.073Z,74.87
2022-09-07T07:36:46.045Z,74.67
2022-09-07T07:37:45.997Z,75.37
2022-09-07T07:39:02.486Z,74.43
2022-09-07T07:40:18.632Z,74.23
2022-09-07T07:41:56.229Z,73.19
2022-09-07T07:42:46.940Z,72.60
2022-09-07T07:43:45.918Z,73.53
2022-09-07T07:44:45.962Z,73.73
2022-09-07T07:46:04.061Z,73.73
2022-09-07T07:46:46.926Z,74.03
2022-09-07T07:47:45.848Z,74.13
2022-09-07T07:48:45.879Z,74.54
2022-09-07T07:49:45.833Z,73.93
2022-09-07T07:50:45.851Z,74.03
2022-09-07T07:52:50.397Z,74.13
2022-09-07T07:53:45.721Z,74.33
2022-09-07T07:54:45.716Z,73.93
2022-09-07T07:55:45.836Z,73.80
2022-09-07T07:56:45.667Z,74.00
2022-09-07T07:57:45.712Z,73.60
2022-09-07T07:58:45.648Z,73.60
2022-09-07T07:59:45.620Z,73.19
2022-09-07T08:00:57.805Z,72.89
2022-09-07T08:01:46.714Z,72.89
2022-09-07T08:02:45.622Z,73.10
2022-09-07T08:03:45.560Z,73.10
2022-09-07T08:04:45.496Z,73.39
2022-09-07T08:05:45.507Z,73.60
2022-09-07T08:06:45.798Z,72.80
2022-09-07T08:07:45.470Z,72.76
2022-09-07T08:08:45.436Z,72.56
2022-09-07T08:09:45.422Z,73.19
2022-09-07T08:10:45.422Z,72.86
2022-09-07T08:11:45.425Z,72.16
2022-09-07T08:12:45.425Z,71.62
2022-09-07T08:13:45.366Z,71.73
2022-09-07T08:14:45.349Z,71.23
2022-09-07T08:15:45.329Z,72.16
2022-09-07T08:16:45.396Z,72.69
2022-09-07T08:17:45.350Z,72.36
2022-09-07T08:18:47.045Z,72.16
2022-09-07T08:19:45.251Z,72.13
2022-09-07T08:20:45.247Z,71.83
2022-09-07T08:21:45.227Z,72.13
2022-09-07T08:22:45.229Z,72.23
2022-09-07T08:23:45.234Z,72.69
2022-09-07T08:24:45.189Z,71.73
2022-09-07T08:25:45.144Z,71.79
2022-09-07T08:26:45.118Z,71.69
2022-09-07T08:27:45.093Z,71.83
2022-09-07T08:28:45.345Z,71.83
2022-09-07T08:29:45.126Z,71.73
2022-09-07T08:30:45.050Z,72.66
2022-09-07T08:31:45.067Z,73.56
2022-09-07T08:32:45.009Z,72.96
2022-09-07T08:33:44.957Z,72.63
2022-09-07T08:34:44.986Z,71.62
2022-09-07T08:35:44.948Z,72.29
2022-09-07T08:36:44.930Z,71.69
2022-09-07T08:37:44.919Z,71.69
2022-09-07T08:38:44.895Z,71.19
2022-09-07T08:39:44.953Z,70.99
2022-09-07T08:40:44.850Z,70.29
2022-09-07T08:41:44.828Z,71.19
2022-09-07T08:42:44.834Z,71.39
2022-09-07T08:43:48.843Z,71.59
2022-09-07T08:44:44.791Z,71.89
2022-09-07T08:45:44.806Z,71.79
2022-09-07T08:46:44.756Z,70.96
2022-09-07T08:47:44.677Z,71.49
2022-09-07T08:48:44.736Z,70.76
2022-09-07T08:49:44.756Z,70.83
2022-09-07T08:50:44.710Z,70.19
2022-09-07T08:51:44.653Z,69.89
2022-09-07T08:52:44.629Z,69.59
2022-09-07T08:53:44.595Z,69.89
2022-09-07T08:54:44.603Z,69.59
2022-09-07T08:55:44.616Z,69.89
2022-09-07T08:57:20.544Z,70.32
2022-09-07T08:57:45.548Z,70.53
2022-09-07T08:58:49.305Z,70.09
2022-09-07T08:59:45.515Z,69.66
2022-09-07T09:00:44.620Z,68.46
2022-09-07T09:02:27.032Z,68.16
2022-09-07T09:02:45.978Z,68.46
2022-09-07T09:05:16.641Z,68.23
2022-09-07T09:05:45.586Z,68.00
2022-09-07T09:06:44.496Z,68.13
2022-09-07T09:07:44.365Z,68.23
2022-09-07T09:08:44.348Z,68.43
2022-09-07T09:09:44.340Z,68.43
2022-09-07T09:10:44.306Z,68.63
2022-09-07T09:11:44.349Z,68.83
2022-09-07T09:12:44.260Z,68.40
2022-09-07T09:13:44.273Z,68.23
2022-09-07T09:14:44.301Z,69.32
